ENHVENHK

Guest
Details From ENHV - Honningsvaag Valan
To ENHK - HASVIK
Flight Number -
Tags generated
Created
Modified
Stats Distance 82 nm / 152 km
Max Altitude 7,100 ft / 2,164 m
Waypoints 3
Social Downloads 1
Likes 0
Share VATSIM

Download

Looking for another format? Having issues loading an existing format? Contact us
Advertisement - Login to hide

Notes

Basic altitude profile: - Ascent Rate: 2500ft/min - Ascent Speed: 250kts - Cruise Altitude: 35000ft - Cruise Speed: 420kts - Descent Rate: 1500ft/min - Descent Speed: 250kts Options: - Use NATs: yes - Use PACOTS: yes - Use low airways: yes - Use high airways: no

Route

ENHV HMF ENHK

ID Type Via Altitude Latitude Longitude Leg Dist Tot Dist Heading (true) Name
O ENHV APT - 0 ft / 0 m 71.00970˚ 25.98401˚ - 0 nm - Honningsvaag Valan
HMF VOR - 7,100 ft / 2,164 m 70.70424˚ 23.69074˚ 48 nm 48 nm 249° / 247° HAMMERFEST VOR-DME
O ENHK APT - 0 ft / 0 m 70.48629˚ 22.14184˚ 33 nm 82 nm 248° / 246° HASVIK

Altitude Profile

Advertisement - Login to hide

ENHV

Details ICAO ENHV (HVG)
Name Honningsvaag Valan
Region Norway
Timezone Europe/Oslo (UTC+1.0)
Stats Elevation 46 ft / 14 m (AMSL)
Location 71.009705° 25.984013°
Runways 1
Magnetic Variation 13.344° E

METAR

ENHV 120750Z 20021KT 9999 -DRSN NSC M01/M06 Q0998

Decode

TAF

Not found

Departure Runways

ID Width Length Bearing (true) Bearing (mag) Surface Threshold Offset Overrun Length
08 98 ft / 30 m 2,887 ft / 880 m 89.49° 76.15° Asphalt 0 ft / 0 m 0 ft / 0 m
26 98 ft / 30 m 2,887 ft / 880 m 269.51° 256.17° Asphalt 0 ft / 0 m 0 ft / 0 m

ENHK

Details ICAO ENHK (HAA)
Name HASVIK
Region Norway
Timezone Europe/Oslo (UTC+1.0)
Stats Elevation 21 ft / 6 m (AMSL)
Location 70.486286° 22.141839°
Runways 1
Magnetic Variation 10.915° E

METAR

ENHK 120750Z 17009KT CAVOK 00/M07 Q0997

Decode

TAF

Not found

Destination Runways

ID Width Length Bearing (true) Bearing (mag) Surface Threshold Offset Overrun Length
11 98 ft / 30 m 3,170 ft / 966 m 118.86° 107.95° Asphalt 199 ft / 61 m 0 ft / 0 m
29 98 ft / 30 m 3,170 ft / 966 m 298.88° 287.97° Asphalt 362 ft / 110 m 0 ft / 0 m

Approach Navaids

Runway Type Ident Frequency Range Bearing (true) Bearing (mag) Slope Elevation
29 Localiser VK 111.50 MHz 18 nm / 33 km 297.00° 286.09° - 48 ft / 15 m (AMSL)